createdAt,value
2024-02-13T00:00:31.572Z,32.22
2024-02-13T00:02:59.372Z,32.58
2024-02-13T00:05:28.041Z,32.90
2024-02-13T00:07:56.000Z,33.08
2024-02-13T00:10:25.820Z,32.80
2024-02-13T00:12:53.651Z,31.88
2024-02-13T00:15:23.931Z,32.42
2024-02-13T00:17:52.595Z,33.33
2024-02-13T00:20:20.320Z,34.13
2024-02-13T00:22:49.140Z,32.08
2024-02-13T00:25:18.785Z,33.10
2024-02-13T00:27:48.254Z,33.42
2024-02-13T00:30:16.130Z,33.42
2024-02-13T00:32:43.998Z,31.95
2024-02-13T00:35:11.779Z,31.88
2024-02-13T00:37:39.813Z,29.60
2024-02-13T00:40:11.754Z,30.08
2024-02-13T00:42:39.469Z,28.83
2024-02-13T00:45:12.268Z,29.23
2024-02-13T00:47:43.543Z,27.52
2024-02-13T00:50:11.788Z,27.55
2024-02-13T00:52:42.108Z,30.50
2024-02-13T00:55:10.376Z,30.08
2024-02-13T00:57:38.409Z,30.03
2024-02-13T01:00:07.013Z,28.38
2024-02-13T01:02:35.722Z,26.85
2024-02-13T01:05:03.397Z,27.77
2024-02-13T01:07:32.484Z,27.80
2024-02-13T01:10:00.607Z,27.60
2024-02-13T01:12:28.635Z,27.00
2024-02-13T01:14:56.492Z,26.47
2024-02-13T01:17:24.204Z,27.00
2024-02-13T01:19:51.806Z,26.37
2024-02-13T01:22:19.577Z,27.60
2024-02-13T01:24:47.100Z,27.83
2024-02-13T01:27:16.432Z,28.83
2024-02-13T01:29:44.447Z,29.53
2024-02-13T01:32:12.038Z,29.00
2024-02-13T01:34:39.910Z,29.23
2024-02-13T01:37:07.987Z,29.43
2024-02-13T01:39:35.577Z,28.83
2024-02-13T01:42:03.227Z,28.57
2024-02-13T01:44:30.848Z,28.37
2024-02-13T01:46:59.015Z,29.10
2024-02-13T01:49:30.286Z,28.90
2024-02-13T01:51:59.543Z,27.57
2024-02-13T01:54:28.364Z,26.30
2024-02-13T01:56:56.407Z,24.33
2024-02-13T01:59:24.138Z,24.63
2024-02-13T02:01:52.135Z,23.90
2024-02-13T02:04:20.483Z,21.70
2024-02-13T02:06:50.903Z,21.53
2024-02-13T02:09:19.420Z,20.17
2024-02-13T02:11:48.213Z,18.47
2024-02-13T02:14:16.228Z,17.67
2024-02-13T02:16:44.363Z,16.07
2024-02-13T02:19:12.013Z,16.80
2024-02-13T02:21:41.760Z,18.90
2024-02-13T02:24:09.314Z,18.50
2024-02-13T02:26:37.849Z,18.73
2024-02-13T02:29:06.937Z,18.87
2024-02-13T02:31:34.499Z,18.50
2024-02-13T02:34:03.404Z,18.30
2024-02-13T02:36:31.019Z,19.17
2024-02-13T02:38:58.678Z,19.90
2024-02-13T02:41:27.035Z,19.97
2024-02-13T02:43:54.837Z,21.60
2024-02-13T02:46:22.377Z,21.77
2024-02-13T02:48:50.314Z,21.90
2024-02-13T02:51:18.397Z,21.80
2024-02-13T02:53:45.919Z,20.93
2024-02-13T02:56:17.460Z,20.13
2024-02-13T02:58:45.101Z,20.87
2024-02-13T03:01:13.453Z,20.57
2024-02-13T03:03:41.317Z,20.53
2024-02-13T03:06:09.131Z,21.97
2024-02-13T03:08:37.148Z,20.77
2024-02-13T03:11:05.513Z,22.47
2024-02-13T03:13:33.987Z,22.43
2024-02-13T03:16:01.731Z,21.87
2024-02-13T03:18:29.499Z,22.60
2024-02-13T03:20:57.348Z,22.17
2024-02-13T03:23:24.831Z,21.17
2024-02-13T03:25:52.437Z,22.77
2024-02-13T03:28:20.090Z,22.73
2024-02-13T03:30:47.746Z,21.43
2024-02-13T03:33:15.345Z,23.30
2024-02-13T03:35:42.945Z,22.50
2024-02-13T03:38:10.810Z,22.27
2024-02-13T03:40:38.330Z,22.27
2024-02-13T03:43:06.137Z,22.37
2024-02-13T03:45:34.223Z,21.50
2024-02-13T03:48:01.842Z,21.70
2024-02-13T03:50:29.890Z,22.23
2024-02-13T03:52:57.453Z,21.93
2024-02-13T03:55:25.355Z,22.67
2024-02-13T03:57:53.488Z,23.50
2024-02-13T04:00:23.105Z,22.90
2024-02-13T04:02:51.142Z,23.47
2024-02-13T04:05:18.848Z,23.13
2024-02-13T04:07:46.389Z,23.30
2024-02-13T04:10:14.256Z,23.73
2024-02-13T04:12:41.953Z,23.83
2024-02-13T04:15:09.484Z,25.10
2024-02-13T04:17:38.351Z,23.57
2024-02-13T04:20:06.188Z,23.87
2024-02-13T04:22:34.615Z,23.67
2024-02-13T04:25:02.122Z,24.90
2024-02-13T04:27:29.847Z,23.73
2024-02-13T04:29:57.817Z,26.27
2024-02-13T04:32:25.795Z,27.93
2024-02-13T04:34:53.549Z,27.83
2024-02-13T04:37:21.141Z,29.17
2024-02-13T04:39:49.130Z,30.73
2024-02-13T04:42:17.076Z,29.80
2024-02-13T04:44:44.927Z,29.60
2024-02-13T04:47:12.696Z,29.63
2024-02-13T04:49:40.339Z,30.83
2024-02-13T04:52:10.386Z,29.97
2024-02-13T04:54:38.281Z,30.20
2024-02-13T04:57:06.359Z,29.87
2024-02-13T04:59:39.148Z,28.97
2024-02-13T05:02:07.362Z,27.97
2024-02-13T05:04:37.601Z,28.17
2024-02-13T05:07:21.060Z,28.13
2024-02-13T05:09:48.707Z,28.13
2024-02-13T05:12:16.492Z,27.83
2024-02-13T05:14:44.204Z,26.63
2024-02-13T05:17:12.460Z,26.77
2024-02-13T05:19:40.506Z,27.57
2024-02-13T05:22:08.086Z,27.07
2024-02-13T05:24:40.562Z,27.23
2024-02-13T05:27:09.397Z,27.93
2024-02-13T05:29:37.605Z,27.80
2024-02-13T05:32:05.502Z,27.10
2024-02-13T05:34:33.444Z,27.83
2024-02-13T05:37:01.105Z,27.53
2024-02-13T05:39:28.687Z,25.93
2024-02-13T05:41:56.886Z,26.83
2024-02-13T05:44:25.768Z,28.13
2024-02-13T05:46:53.239Z,28.47
2024-02-13T05:49:21.437Z,26.17
2024-02-13T05:51:49.603Z,26.47
2024-02-13T05:54:18.002Z,26.60
2024-02-13T05:56:46.327Z,27.37
2024-02-13T05:59:15.540Z,26.67
2024-02-13T06:01:44.349Z,25.70
2024-02-13T06:04:13.562Z,26.27
2024-02-13T06:06:43.801Z,25.60
2024-02-13T06:09:12.165Z,25.33
2024-02-13T06:11:40.118Z,25.30
2024-02-13T06:14:07.653Z,24.27
2024-02-13T06:16:35.434Z,24.97
2024-02-13T06:19:03.169Z,24.50
2024-02-13T06:21:31.062Z,24.03
2024-02-13T06:23:58.880Z,24.13
2024-02-13T06:26:26.714Z,23.70
2024-02-13T06:28:55.952Z,24.70
2024-02-13T06:31:24.011Z,24.27
2024-02-13T06:33:52.108Z,23.53
2024-02-13T06:36:19.639Z,24.07
2024-02-13T06:38:47.481Z,23.43
2024-02-13T06:41:15.514Z,24.23
2024-02-13T06:43:43.269Z,23.37
2024-02-13T06:46:11.453Z,23.80
2024-02-13T06:48:41.176Z,24.30
2024-02-13T06:51:14.039Z,25.10
2024-02-13T06:53:44.471Z,24.70
2024-02-13T06:56:12.348Z,23.47
2024-02-13T06:58:40.574Z,25.80
2024-02-13T07:01:10.458Z,22.83
2024-02-13T07:03:38.235Z,24.93
2024-02-13T07:06:06.366Z,25.30
2024-02-13T07:08:34.790Z,24.77
2024-02-13T07:11:02.466Z,25.17
2024-02-13T07:13:30.297Z,24.90
2024-02-13T07:15:57.969Z,23.13
2024-02-13T07:18:26.489Z,23.93
2024-02-13T07:20:55.374Z,23.67
2024-02-13T07:23:23.637Z,25.07
2024-02-13T07:25:51.238Z,24.30
2024-02-13T07:28:19.101Z,24.93
2024-02-13T07:30:49.165Z,24.60
2024-02-13T07:33:17.409Z,25.77
2024-02-13T07:35:45.644Z,25.40
2024-02-13T07:38:13.894Z,26.70
2024-02-13T07:40:41.975Z,24.33
2024-02-13T07:43:10.122Z,27.07
2024-02-13T07:45:38.144Z,28.27
2024-02-13T07:48:06.472Z,27.77
2024-02-13T07:50:36.517Z,27.33
2024-02-13T07:53:05.974Z,28.30
2024-02-13T07:55:33.521Z,28.27
2024-02-13T07:58:01.692Z,28.63
2024-02-13T08:00:30.643Z,27.73
2024-02-13T08:02:58.587Z,28.30
2024-02-13T08:05:26.352Z,28.97
2024-02-13T08:07:54.378Z,27.77
2024-02-13T08:10:22.221Z,26.33
2024-02-13T08:12:50.840Z,24.95
2024-02-13T08:15:18.547Z,23.52
2024-02-13T08:17:46.755Z,23.55
2024-02-13T08:20:14.975Z,23.27
2024-02-13T08:22:43.348Z,23.73
2024-02-13T08:25:11.667Z,21.08
2024-02-13T08:27:39.613Z,20.60
2024-02-13T08:30:11.702Z,18.73
2024-02-13T08:32:42.864Z,20.02
2024-02-13T08:35:11.474Z,17.83
2024-02-13T08:37:39.463Z,17.17
2024-02-13T08:40:07.534Z,14.93
2024-02-13T08:42:36.345Z,15.27
2024-02-13T08:45:03.977Z,14.90
2024-02-13T08:47:32.086Z,14.20
2024-02-13T08:49:59.784Z,15.07
2024-02-13T08:52:27.485Z,14.73
2024-02-13T08:54:55.671Z,13.90
2024-02-13T08:57:23.706Z,13.43
2024-02-13T08:59:55.953Z,12.95
2024-02-13T09:02:24.801Z,13.02
2024-02-13T09:04:52.563Z,11.70
2024-02-13T09:07:20.320Z,11.60
2024-02-13T09:09:47.909Z,12.70
2024-02-13T09:12:15.641Z,10.68
2024-02-13T09:14:43.576Z,11.18
2024-02-13T09:17:11.592Z,12.57
2024-02-13T09:19:43.169Z,11.40
2024-02-13T09:22:12.337Z,11.38
2024-02-13T09:24:40.135Z,9.63
2024-02-13T09:27:08.507Z,10.20
2024-02-13T09:29:36.135Z,10.07
2024-02-13T09:32:05.958Z,9.25
2024-02-13T09:34:34.935Z,9.55
2024-02-13T09:37:04.254Z,8.65
2024-02-13T09:39:33.050Z,9.27
2024-02-13T09:42:00.929Z,8.65
2024-02-13T09:44:29.760Z,9.55
2024-02-13T09:46:58.721Z,8.45
2024-02-13T09:49:27.903Z,7.22
2024-02-13T09:51:57.546Z,7.50
2024-02-13T09:54:26.365Z,7.78
2024-02-13T09:56:54.460Z,8.82
2024-02-13T09:59:23.088Z,9.20
2024-02-13T10:01:50.758Z,10.00
2024-02-13T10:04:20.064Z,10.25
2024-02-13T10:06:52.001Z,9.50
2024-02-13T10:09:20.840Z,8.95
2024-02-13T10:11:50.072Z,9.07
2024-02-13T10:14:20.620Z,8.95
2024-02-13T10:16:51.311Z,8.05
2024-02-13T10:19:22.827Z,7.72
2024-02-13T10:21:51.190Z,7.55
2024-02-13T10:24:19.155Z,8.48
2024-02-13T10:26:47.391Z,8.13
2024-02-13T10:29:15.752Z,7.70
2024-02-13T10:31:45.709Z,8.15
2024-02-13T10:34:14.694Z,7.88
2024-02-13T10:36:46.789Z,7.38
2024-02-13T10:39:16.090Z,8.40
2024-02-13T10:41:46.919Z,6.88
2024-02-13T10:44:22.773Z,6.90
2024-02-13T10:46:52.014Z,6.53
2024-02-13T10:49:31.691Z,6.60
2024-02-13T10:52:01.026Z,7.13
2024-02-13T10:54:31.119Z,7.15
2024-02-13T10:56:59.084Z,6.90
2024-02-13T10:59:30.012Z,6.32
2024-02-13T11:02:01.109Z,6.32
2024-02-13T11:04:30.302Z,6.03
2024-02-13T11:06:58.271Z,5.90
2024-02-13T11:09:26.389Z,4.97
2024-02-13T11:11:55.604Z,5.22
2024-02-13T11:14:26.680Z,5.10
2024-02-13T11:17:12.003Z,5.15
2024-02-13T11:19:48.517Z,4.95
2024-02-13T11:22:16.989Z,5.07
2024-02-13T11:24:55.078Z,5.15
2024-02-13T11:27:29.491Z,4.55
2024-02-13T11:30:00.844Z,4.93
2024-02-13T11:32:30.538Z,3.90
2024-02-13T11:35:02.975Z,3.65
2024-02-13T11:37:31.997Z,3.10
2024-02-13T11:40:00.010Z,4.13
2024-02-13T11:42:34.756Z,3.15
2024-02-13T11:45:03.131Z,3.60
2024-02-13T11:47:31.168Z,3.25
2024-02-13T11:49:59.035Z,2.85
2024-02-13T11:52:27.648Z,2.80
2024-02-13T11:54:55.955Z,2.72
2024-02-13T11:57:26.754Z,2.38
2024-02-13T12:00:01.956Z,2.97
2024-02-13T12:02:34.897Z,3.40
2024-02-13T12:05:05.733Z,3.00
2024-02-13T12:07:37.781Z,3.10
2024-02-13T12:10:08.342Z,3.47
2024-02-13T12:12:37.098Z,3.42
2024-02-13T12:15:05.315Z,3.10
2024-02-13T12:17:36.043Z,3.10
2024-02-13T12:20:05.538Z,3.30
2024-02-13T12:22:34.262Z,3.28
2024-02-13T12:25:08.108Z,3.25
2024-02-13T12:27:35.848Z,3.60
2024-02-13T12:30:04.959Z,3.58
2024-02-13T12:32:36.260Z,3.53
2024-02-13T12:35:23.361Z,3.83
2024-02-13T12:37:54.164Z,3.88
2024-02-13T12:40:24.124Z,3.60
2024-02-13T12:42:52.003Z,3.47
2024-02-13T12:45:20.995Z,3.78
2024-02-13T12:47:50.025Z,3.70
2024-02-13T12:50:18.552Z,3.65
2024-02-13T12:52:46.426Z,3.75
2024-02-13T12:55:17.221Z,4.10
2024-02-13T12:57:44.946Z,3.83
2024-02-13T13:00:18.133Z,3.60
2024-02-13T13:02:46.089Z,4.10
2024-02-13T13:05:14.392Z,3.95
2024-02-13T13:07:43.611Z,3.50
2024-02-13T13:10:14.762Z,3.65
2024-02-13T13:12:46.298Z,3.50
2024-02-13T13:15:19.760Z,3.78
2024-02-13T13:17:50.748Z,3.65
2024-02-13T13:20:25.396Z,3.83
2024-02-13T13:22:53.414Z,3.90
2024-02-13T13:25:32.811Z,3.70
2024-02-13T13:28:06.740Z,1.83
2024-02-13T13:30:35.242Z,2.10
2024-02-13T13:33:05.205Z,1.80
2024-02-13T13:35:33.509Z,1.80
2024-02-13T13:38:01.678Z,1.90
2024-02-13T13:40:34.636Z,2.33
2024-02-13T13:43:02.686Z,3.13
2024-02-13T13:45:30.650Z,3.13
2024-02-13T13:47:58.372Z,2.97
2024-02-13T13:50:26.447Z,3.30
2024-02-13T13:52:55.146Z,3.15
2024-02-13T13:55:22.755Z,3.17
2024-02-13T13:57:50.198Z,3.50
2024-02-13T14:00:22.158Z,3.78
2024-02-13T14:02:50.005Z,3.50
2024-02-13T14:05:19.328Z,3.65
2024-02-13T14:07:47.659Z,4.20
2024-02-13T14:10:18.138Z,4.20
2024-02-13T14:12:46.139Z,4.40
2024-02-13T14:15:13.957Z,4.78
2024-02-13T14:17:44.507Z,4.90
2024-02-13T14:20:16.094Z,5.78
2024-02-13T14:22:46.104Z,7.45
2024-02-13T14:25:14.552Z,7.32
2024-02-13T14:27:43.317Z,6.93
2024-02-13T14:30:12.090Z,5.63
2024-02-13T14:32:40.461Z,7.63
2024-02-13T14:35:09.073Z,8.13
2024-02-13T14:37:36.691Z,8.40
2024-02-13T14:40:07.447Z,8.32
2024-02-13T14:42:35.684Z,9.93
2024-02-13T14:45:03.586Z,9.27
2024-02-13T14:47:32.903Z,9.93
2024-02-13T14:50:01.102Z,10.38
2024-02-13T14:52:28.726Z,9.68
2024-02-13T14:54:56.640Z,9.73
2024-02-13T14:57:24.684Z,12.88
2024-02-13T14:59:53.254Z,9.95
2024-02-13T15:02:21.420Z,9.70
2024-02-13T15:04:51.931Z,10.40
2024-02-13T15:07:20.469Z,10.70
2024-02-13T15:09:52.505Z,10.40
2024-02-13T15:12:27.258Z,10.38
2024-02-13T15:14:55.510Z,10.13
2024-02-13T15:17:23.208Z,10.68
2024-02-13T15:19:52.412Z,10.80
2024-02-13T15:22:21.826Z,11.10
2024-02-13T15:24:49.423Z,11.75
2024-02-13T15:27:16.966Z,11.33
2024-02-13T15:29:44.940Z,11.30
2024-02-13T15:32:15.408Z,11.80
2024-02-13T15:34:44.436Z,11.53
2024-02-13T15:37:22.336Z,11.43
2024-02-13T15:40:08.312Z,11.40
2024-02-13T15:43:05.069Z,13.33
2024-02-13T15:45:51.628Z,12.27
2024-02-13T15:48:20.079Z,12.70
2024-02-13T15:50:48.404Z,12.43
2024-02-13T15:53:16.917Z,12.67
2024-02-13T15:55:45.840Z,12.70
2024-02-13T15:58:15.464Z,12.47
2024-02-13T16:00:43.656Z,13.67
2024-02-13T16:03:11.303Z,12.50
2024-02-13T16:05:40.130Z,13.60
2024-02-13T16:08:08.478Z,14.80
2024-02-13T16:10:36.320Z,14.90
2024-02-13T16:13:05.301Z,15.23
2024-02-13T16:15:33.876Z,14.70
2024-02-13T16:18:01.649Z,15.87
2024-02-13T16:20:29.599Z,15.03
2024-02-13T16:22:57.205Z,15.57
2024-02-13T16:25:27.711Z,14.83
2024-02-13T16:28:00.067Z,15.57
2024-02-13T16:30:28.160Z,15.77
2024-02-13T16:32:55.788Z,15.47
2024-02-13T16:35:26.398Z,16.30
2024-02-13T16:37:54.596Z,16.23
2024-02-13T16:40:22.340Z,15.90
2024-02-13T16:42:56.658Z,16.43
2024-02-13T16:45:27.453Z,16.33
2024-02-13T16:47:55.200Z,16.73
2024-02-13T16:50:23.217Z,17.13
2024-02-13T16:52:53.054Z,19.10
2024-02-13T16:55:20.727Z,18.30
2024-02-13T16:57:49.200Z,16.57
2024-02-13T17:00:21.745Z,16.83
2024-02-13T17:02:51.367Z,16.93
2024-02-13T17:05:20.091Z,16.83
2024-02-13T17:07:49.017Z,15.23
2024-02-13T17:10:17.260Z,16.13
2024-02-13T17:12:46.826Z,16.03
2024-02-13T17:15:14.772Z,16.27
2024-02-13T17:17:43.083Z,16.27
2024-02-13T17:20:14.944Z,17.07
2024-02-13T17:22:44.034Z,17.07
2024-02-13T17:25:12.907Z,16.47
2024-02-13T17:27:44.709Z,16.60
2024-02-13T17:30:18.846Z,16.53
2024-02-13T17:32:48.192Z,16.50
2024-02-13T17:35:16.546Z,16.90
2024-02-13T17:37:44.275Z,17.03
2024-02-13T17:40:14.426Z,17.30
2024-02-13T17:42:42.416Z,16.70
2024-02-13T17:45:10.142Z,17.60
2024-02-13T17:47:39.352Z,17.53
2024-02-13T17:50:08.509Z,17.97
2024-02-13T17:52:36.756Z,17.60
2024-02-13T17:55:08.506Z,17.53
2024-02-13T17:57:39.799Z,17.13
2024-02-13T18:00:08.837Z,17.23
2024-02-13T18:02:43.050Z,18.90
2024-02-13T18:05:11.141Z,18.67
2024-02-13T18:07:39.201Z,18.70
2024-02-13T18:10:09.513Z,19.50
2024-02-13T18:12:41.630Z,18.83
2024-02-13T18:15:11.722Z,20.07
2024-02-13T18:17:42.184Z,19.00
2024-02-13T18:20:16.363Z,19.83
2024-02-13T18:22:45.566Z,19.30
2024-02-13T18:25:13.546Z,20.57
2024-02-13T18:27:41.134Z,20.20
2024-02-13T18:30:09.449Z,18.93
2024-02-13T18:32:37.334Z,20.33
2024-02-13T18:35:05.766Z,20.17
2024-02-13T18:37:33.602Z,21.00
2024-02-13T18:40:02.417Z,20.70
2024-02-13T18:42:30.146Z,19.77
2024-02-13T18:44:58.659Z,20.53
2024-02-13T18:47:26.474Z,19.67
2024-02-13T18:49:55.110Z,19.90
2024-02-13T18:52:24.650Z,17.27
2024-02-13T18:54:52.430Z,17.30
2024-02-13T18:57:20.667Z,16.23
2024-02-13T18:59:49.163Z,16.10
2024-02-13T19:02:20.425Z,15.10
2024-02-13T19:04:49.061Z,15.00
2024-02-13T19:07:17.010Z,15.13
2024-02-13T19:09:45.331Z,14.43
2024-02-13T19:12:12.969Z,15.33
2024-02-13T19:14:40.742Z,14.53
2024-02-13T19:17:08.558Z,15.40
2024-02-13T19:19:36.686Z,15.93
2024-02-13T19:22:04.944Z,15.17
2024-02-13T19:24:32.428Z,15.07
2024-02-13T19:27:00.202Z,15.77
2024-02-13T19:29:28.094Z,16.23
2024-02-13T19:31:55.812Z,16.40
2024-02-13T19:34:28.354Z,18.07
2024-02-13T19:36:57.982Z,18.70
2024-02-13T19:39:25.879Z,21.03
2024-02-13T19:41:54.346Z,19.70
2024-02-13T19:44:23.497Z,20.53
2024-02-13T19:46:51.536Z,21.43
2024-02-13T19:49:19.163Z,21.80
2024-02-13T19:51:47.200Z,21.43
2024-02-13T19:54:15.259Z,19.70
2024-02-13T19:56:43.255Z,20.60
2024-02-13T19:59:11.676Z,19.17
2024-02-13T20:01:39.249Z,20.40
2024-02-13T20:04:06.972Z,20.30
2024-02-13T20:06:35.399Z,21.37
2024-02-13T20:09:04.133Z,21.03
2024-02-13T20:11:32.860Z,21.60
2024-02-13T20:14:00.882Z,21.73
2024-02-13T20:16:29.507Z,21.07
2024-02-13T20:18:59.597Z,20.50
2024-02-13T20:21:31.872Z,20.23
2024-02-13T20:23:59.736Z,20.13
2024-02-13T20:26:27.517Z,20.13
2024-02-13T20:28:56.187Z,19.23
2024-02-13T20:31:24.238Z,19.47
2024-02-13T20:33:52.691Z,19.30
2024-02-13T20:36:20.507Z,18.63
2024-02-13T20:38:48.222Z,19.00
2024-02-13T20:41:18.847Z,19.53
2024-02-13T20:43:47.071Z,19.03
2024-02-13T20:46:16.986Z,18.60
2024-02-13T20:48:45.031Z,19.53
2024-02-13T20:51:12.813Z,17.67
2024-02-13T20:53:40.610Z,16.83
2024-02-13T20:56:08.398Z,17.17
2024-02-13T20:58:36.272Z,16.17
2024-02-13T21:01:05.052Z,16.80
2024-02-13T21:03:32.810Z,15.20
2024-02-13T21:06:00.998Z,15.67
2024-02-13T21:08:28.967Z,15.70
2024-02-13T21:10:56.546Z,15.33
2024-02-13T21:13:24.548Z,15.17
2024-02-13T21:15:52.537Z,15.97
2024-02-13T21:18:20.390Z,15.17
2024-02-13T21:20:58.959Z,14.83
2024-02-13T21:23:45.712Z,14.03
2024-02-13T21:26:13.368Z,14.23
2024-02-13T21:28:41.224Z,15.30
2024-02-13T21:31:08.873Z,13.97
2024-02-13T21:33:36.630Z,15.93
2024-02-13T21:36:05.436Z,15.83
2024-02-13T21:38:34.416Z,15.47
2024-02-13T21:41:02.507Z,16.63
2024-02-13T21:43:30.331Z,16.77
2024-02-13T21:45:57.892Z,16.90
2024-02-13T21:48:27.188Z,15.83
2024-02-13T21:50:56.042Z,16.67
2024-02-13T21:53:24.441Z,16.77
2024-02-13T21:55:53.114Z,16.83
2024-02-13T21:58:20.721Z,16.50
2024-02-13T22:00:49.072Z,16.93
2024-02-13T22:03:17.170Z,17.13
2024-02-13T22:05:45.496Z,16.57
2024-02-13T22:08:13.980Z,16.63
2024-02-13T22:10:43.157Z,17.43
2024-02-13T22:13:11.134Z,16.93
2024-02-13T22:15:38.993Z,17.97
2024-02-13T22:18:07.042Z,16.60
2024-02-13T22:20:38.299Z,17.27
2024-02-13T22:23:06.342Z,16.07
2024-02-13T22:25:37.225Z,17.27
2024-02-13T22:28:06.517Z,15.80
2024-02-13T22:30:34.218Z,16.23
2024-02-13T22:33:04.591Z,15.73
2024-02-13T22:35:32.334Z,15.43
2024-02-13T22:38:00.265Z,16.00
2024-02-13T22:40:28.486Z,15.10
2024-02-13T22:42:56.095Z,15.83
2024-02-13T22:45:23.749Z,15.67
2024-02-13T22:48:02.445Z,15.73
2024-02-13T22:50:31.040Z,16.07
2024-02-13T22:53:04.193Z,16.97
2024-02-13T22:55:31.769Z,17.20
2024-02-13T22:58:02.238Z,17.37
2024-02-13T23:00:44.205Z,18.17
2024-02-13T23:03:14.385Z,18.83
2024-02-13T23:06:05.077Z,17.50
2024-02-13T23:08:33.033Z,18.00
2024-02-13T23:11:01.294Z,19.07
2024-02-13T23:13:35.964Z,19.27
2024-02-13T23:16:08.608Z,20.50
2024-02-13T23:18:37.529Z,19.97
2024-02-13T23:21:05.671Z,20.53
2024-02-13T23:23:36.391Z,21.93
2024-02-13T23:26:04.523Z,22.47
2024-02-13T23:28:38.882Z,22.90
2024-02-13T23:31:13.322Z,22.20
2024-02-13T23:33:41.214Z,25.53
2024-02-13T23:36:10.575Z,26.20
2024-02-13T23:38:38.199Z,27.23
2024-02-13T23:41:07.026Z,29.40
2024-02-13T23:43:35.006Z,29.27
2024-02-13T23:46:02.855Z,29.57
2024-02-13T23:48:31.260Z,30.50
2024-02-13T23:50:59.141Z,29.43
2024-02-13T23:53:27.436Z,30.27
2024-02-13T23:55:55.284Z,31.43
2024-02-13T23:58:22.768Z,32.17
